Tiempo atmosférico en la estación meteorológica de Santibañez De Vidriales, Zamora (737 m.)



Fecha
DESCASC
Temp. máxima en grados centígrados (hora)
DESCASC
Temp. mínima en grados centígrados (hora)
DESCASC
Temp. media en grados centígrados
DESCASC
Racha de viento máxima en m/sg (hora)
DESCASC
Velocidad máxima media en intervalos de 10 minutos(hora)
DESCASC
Precipitaciones diarias en mm
DESCASC
Precipitaciones de 00:00 a 06:00 en mm
DESCASC
Precipitaciones de 06:00 a 12:00 en mm
DESCASC
Precipitaciones de 12:00 a 18:00 en mm
DESCASC
Precipitaciones de 18:00 a 24:00 en mm
DESCASC
26-11-2020 11.3 (12:50) 7 (00:10) 9.2 9.17 (12:40) 5.83 (12:00) 2.2 0.8 0 0.4 1
25-11-2020 7.2 (20:50) 2.3 (03:20) 4.7 7.22 (20:00) 3.61 (19:50) 22 0.8 8.4 12 0.8
24-11-2020 12.4 (14:40) -1.5 (08:30) 5.4 7.78 (17:20) 4.72 (15:30) 0 0 0 0 0
23-11-2020 14.2 (15:30) -1 (08:10) 6.6 2.78 (16:20) 1.39 (15:40) 0 0 0 0 0
22-11-2020 16.1 (16:00) -1.3 (-00:0) 7.4 2.5 (18:30) 1.94 (18:10) 0 0 0 0 0
21-11-2020 16.5 (16:10) 0.9 (00:00) 8.7 5 (14:40) 3.06 (14:40) 0 0 0 0 0
20-11-2020 11.9 (15:20) 3.2 (00:00) 7.5 5.28 (13:20) 3.33 (06:40) 0 0 0 0 0
19-11-2020 17.6 (15:50) 3.8 (00:00) 10.7 3.33 (21:10) 2.22 (01:10) 0 0 0 0 0
18-11-2020 15.9 (16:20) 4.2 (00:00) 10 3.61 (15:40) 2.22 (17:50) 0 0 0 0 0
17-11-2020 16.3 (16:00) 0.7 (00:00) 8.5 3.61 (15:10) 2.22 (16:50) 0 0 0 0 0
16-11-2020 14.4 (16:50) 4.9 (00:00) 9.6 2.78 (10:50) 1.67 (02:10) 0 0 0 0 0
15-11-2020 15.5 (13:50) 11 (00:00) 13.3 12.78 (14:00) 8.06 (14:00) 3.4 0 1.2 2 0.2
14-11-2020 12.7 (13:40) 6.1 (00:00) 9.4 5.28 (23:40) 3.89 (23:40) 0.8 0 0 0.4 0.4
13-11-2020 10.9 (16:20) 6.8 (00:00) 8.8 4.72 (16:50) 3.06 (16:30) 0.2 0 0 0 0.2
12-11-2020 9.2 (14:50) 5.4 (00:00) 7.3 3.61 (15:30) 1.94 (09:20) 0 0 0 0 0
11-11-2020 12.1 (15:10) 6.7 (00:00) 9.4 7.78 (13:50) 4.17 (13:50) 0 0 0 0 0
10-11-2020 9.1 (15:40) 0.9 (00:00) 5 3.89 (14:30) 2.5 (16:40) 0 0 0 0 0
09-11-2020 14.2 (14:40) 4.7 (00:00) 9.4 7.5 (14:50) 5 (14:10) 0.2 0.2 0 0 0
08-11-2020 11.4 (17:40) 8.4 (00:00) 9.9 9.44 (12:00) 5.28 (11:50) 3.8 0 1.8 1.8 0.2
07-11-2020 15.3 (13:50) 9.6 (00:00) 12.5 10.28 (13:30) 6.94 (14:00) 3 2.4 0.6 0 0
06-11-2020 14.6 (19:10) 8.4 (00:00) 11.5 11.11 (21:50) 6.94 (21:50) 2.6 0.8 0.2 0.4 1.2
05-11-2020 11.8 (16:40) 5.7 (00:00) 8.8 10.83 (09:40) 6.11 (09:40) 6 0 1.4 0.8 3.8
04-11-2020 10.4 (15:00) 2.7 (00:00) 6.5 15 (20:30) 9.72 (20:30) 0.6 0 0 0 0.6
03-11-2020 14.1 (14:00) 4.2 (00:00) 9.2 10.28 (04:20) 6.94 (11:50) 0 0 0 0 0
02-11-2020 19.1 (14:40) 12.2 (00:00) 15.7 10 (14:00) 6.67 (14:00) 0 0 0 0 0
01-11-2020 16.2 (16:40) 9 (00:00) 12.6 6.94 (14:40) 4.72 (14:40) 0 0 0 0 0
31-10-2020 17.8 (15:40) 3.9 (00:00) 10.8 10 (16:10) 6.94 (16:30) 0 0 0 0 0
30-10-2020 18.6 (17:00) 2.8 (00:00) 10.7 5.28 (14:50) 3.33 (16:50) 0 0 0 0 0
29-10-2020 14.8 (16:40) 0.5 (00:00) 7.7 4.17 (14:20) 2.22 (17:20) 0 0 0 0 0
28-10-2020 16.7 (13:20) 4.9 (00:00) 10.8 8.89 (13:20) 6.11 (15:40) 0.2 0 0.2 0 0

Gráficas

Temp. máximas Temp. mínimas Temp. medias Precipitaciones Rachas de viento máximas Velocidades máximas media en intervalos de 10 minutos

Datos horarios

Fecha y hora oficial Temperatura (ºC) Velocidad del viento (km/h) Dirección del viento Racha (km/h) Dirección de racha Precipitación (mm) Presión (hPa) Tendencia (hPa) Humedad (%)
2020-11-26 23:00:00 9 17 Este 31 Este 0.4 -- -- 90
2020-11-26 22:00:00 9.4 13 Este 21 Este 0 -- -- 85
2020-11-26 21:00:00 9.2 6 Nordeste 14 Nordeste 0.2 -- -- 87
2020-11-26 20:00:00 9.1 8 Nordeste 17 Norte 0.2 -- -- 90
2020-11-26 19:00:00 9.4 13 Norte 18 Norte 0 -- -- 87
2020-11-26 18:00:00 9.1 7 Nordeste 20 Nordeste 0 -- -- 89
2020-11-26 17:00:00 9.2 10 Norte 21 Nordeste 0.2 -- -- 88
2020-11-26 16:00:00 9.2 12 Nordeste 19 Nordeste 0.2 -- -- 89
2020-11-26 15:00:00 9.3 10 Nordeste 23 Este 0 -- -- 85
2020-11-26 14:00:00 10 16 Este 27 Este 0 -- -- 80
2020-11-26 13:00:00 10.8 17 Sudeste 33 Este 0 -- -- 76
2020-11-26 12:00:00 10.1 21 Este 30 Este 0 -- -- 80
2020-11-26 11:00:00 8.3 15 Este 24 Este 0 -- -- 86
2020-11-26 10:00:00 7.9 12 Nordeste 25 Este 0 -- -- 87
2020-11-26 09:00:00 8 14 Este 31 Este 0 -- -- 87
2020-11-26 08:00:00 7.3 8 Este 22 Nordeste 0 -- -- 90
2020-11-26 07:00:00 7.3 9 Nordeste 19 Nordeste 0 -- -- 91
2020-11-26 06:00:00 7.4 7 Nordeste 13 Nordeste 0 -- -- 94
2020-11-26 05:00:00 7.4 6 Nordeste 9 Nordeste 0.2 -- -- 95
2020-11-26 04:00:00 7.4 4 Este 9 Este 0.4 -- -- 94
2020-11-26 03:00:00 7 5 Nordeste 8 Este 0 -- -- 94
2020-11-26 02:00:00 7.2 4 Este 10 Este 0 -- -- 92
2020-11-26 01:00:00 7 4 Nordeste 6 Nordeste 0.2 -- -- 94
2020-11-26 00:00:00 7.1 0 Calma 9 Nordeste 0 -- -- 94
2020-11-25 23:00:00 7.2 4 Nordeste 8 Este 0.4 -- -- 94
2020-11-25 22:00:00 7.1 2 Nordeste 10 Nordeste 0 -- -- 93
2020-11-25 21:00:00 7.1 5 Nordeste 18 Nordeste 0 -- -- 92
2020-11-25 20:00:00 7 13 Nordeste 26 Este 0.2 -- -- 94
2020-11-25 19:00:00 6.5 5 Nordeste 15 Nordeste 0.2 -- -- 96
2020-11-25 18:00:00 6.4 8 Nordeste 14 Nordeste 1 -- -- 96
2020-11-25 17:00:00 6.2 6 Nordeste 9 Nordeste 2 -- -- 96
2020-11-25 16:00:00 6.2 7 Nordeste 12 Nordeste 1.8 -- -- 96
2020-11-25 15:00:00 6.1 4 Este 17 Este 2.8 -- -- 97
2020-11-25 14:00:00 5.9 9 Sudeste 17 Sudeste 2.4 -- -- 97
2020-11-25 13:00:00 6.1 6 Sudeste 12 Este 2 -- -- 97
2020-11-25 12:00:00 5.8 4 Este 10 Sudeste 1.6 -- -- 98
2020-11-25 11:00:00 5.1 6 Sudeste 12 Sudeste 1.8 -- -- 98
2020-11-25 10:00:00 4.5 6 Sudeste 11 Sudeste 2.2 -- -- 98
2020-11-25 09:00:00 4.4 6 Sudeste 12 Sudeste 0.6 -- -- 97
2020-11-25 08:00:00 4.2 6 Sudeste 12 Sudeste 1 -- -- 97
2020-11-25 07:00:00 4.1 9 Sudeste 13 Sudeste 1.2 -- -- 97
2020-11-25 06:00:00 4 8 Sudeste 14 Sudeste 0.8 -- -- 97
2020-11-25 05:00:00 4.3 3 Este 5 Este 0 -- -- 97
2020-11-25 04:00:00 3 2 Noroeste 5 Este 0 -- -- 97
2020-11-25 03:00:00 2.5 0 Calma 4 Noroeste 0 -- -- 96
2020-11-25 02:00:00 3.2 3 Sudeste 6 Este 0 -- -- 96
2020-11-25 01:00:00 2.9 0 Calma 6 Oeste 0 -- -- 94
2020-11-25 00:00:00 4.3 3 Sudeste 7 Este 0 -- -- 93
2020-11-24 23:00:00 4.5 0 Calma 6 Sudeste 0 -- -- 93
2020-11-24 22:00:00 4.6 3 Sur 6 Sudeste 0 -- -- 91
2020-11-24 21:00:00 5.9 5 Oeste 9 Sudoeste 0 -- -- 91
2020-11-24 20:00:00 5.9 6 Sudoeste 12 Sudoeste 0 -- -- 88
2020-11-24 19:00:00 7.3 9 Sudoeste 13 Sudoeste 0 -- -- 82
2020-11-24 18:00:00 9.7 3 Sudoeste 28 Sudoeste 0 -- -- 73
2020-11-24 17:00:00 11.1 15 Sudoeste 23 Sudoeste 0 -- -- 68
2020-11-24 16:00:00 11.9 11 Sudoeste 24 Sudoeste 0 -- -- 65
2020-11-24 15:00:00 12.3 14 Sudoeste 23 Sur 0 -- -- 64
2020-11-24 14:00:00 9.7 9 Sudeste 15 Sudeste 0 -- -- 75
2020-11-24 13:00:00 7.8 5 Nordeste 11 Este 0 -- -- 78
2020-11-24 12:00:00 5.3 3 Este 8 Sudeste 0 -- -- 89
2020-11-24 11:00:00 2.4 0 Calma 2 Este 0 -- -- 93
2020-11-24 10:00:00 0.9 0 Calma 2 Oeste 0 -- -- 95
2020-11-24 09:00:00 -1.2 0 Calma 3 Noroeste 0 -- -- 96
2020-11-24 08:00:00 -1.4 0 Calma 2 Noroeste 0 -- -- 94
2020-11-24 07:00:00 -1.1 0 Calma 4 Noroeste 0 -- -- 95
2020-11-24 06:00:00 -0.5 0 Calma 2 Noroeste 0 -- -- 95
2020-11-24 05:00:00 0.2 0 Calma 2 Sudoeste 0 -- -- 95
2020-11-24 04:00:00 0.3 0 Calma 0 Calma 0 -- -- 94
2020-11-24 03:00:00 0.9 0 Calma 2 Sudoeste 0 -- -- 93
2020-11-24 02:00:00 1.3 0 Calma 2 Sudoeste 0 -- -- 93
2020-11-24 01:00:00 2.1 0 Calma 3 Sudoeste 0 -- -- 93
2020-11-24 00:00:00 2.7 0 Calma 7 Oeste 0 -- -- 91
2020-11-23 23:00:00 3.5 3 Sudoeste 6 Sudoeste 0 -- -- 89
2020-11-23 22:00:00 4.2 0 Calma 5 Norte 0 -- -- 90
2020-11-23 21:00:00 4.7 0 Calma 6 Noroeste 0 -- -- 87
2020-11-23 20:00:00 5.7 3 Noroeste 5 Noroeste 0 -- -- 84
2020-11-23 19:00:00 8.2 2 Noroeste 3 Noroeste 0 -- -- 76
2020-11-23 18:00:00 10.9 0 Calma 6 Sudeste 0 -- -- 63
2020-11-23 17:00:00 12.8 5 Sudeste 10 Sudeste 0 -- -- 57
2020-11-23 16:00:00 13.9 3 Sudeste 9 Este 0 -- -- 53
2020-11-23 15:00:00 14 2 Sudeste 7 Sudeste 0 -- -- 52
2020-11-23 14:00:00 13.4 4 Sudeste 8 Este 0 -- -- 56
2020-11-23 13:00:00 11.6 2 Sudeste 6 Sur 0 -- -- 66
2020-11-23 12:00:00 8.7 0 Calma 4 Sudeste 0 -- -- 77
2020-11-23 11:00:00 5.5 0 Calma 3 Este 0 -- -- 90
2020-11-23 10:00:00 1 0 Calma 2 Noroeste 0 -- -- 94
2020-11-23 09:00:00 -0.6 0 Calma 2 Sudoeste 0 -- -- 95
2020-11-23 08:00:00 -0.8 0 Calma 3 Oeste 0 -- -- 95
2020-11-23 07:00:00 -0.8 0 Calma 2 Noroeste 0 -- -- 94
2020-11-23 06:00:00 -0.2 0 Calma 2 Oeste 0 -- -- 93
2020-11-23 05:00:00 0.2 0 Calma 2 Sudoeste 0 -- -- 93
2020-11-23 04:00:00 0.5 0 Calma 2 Noroeste 0 -- -- 92
2020-11-23 03:00:00 1 3 Noroeste 4 Oeste 0 -- -- 93
2020-11-23 02:00:00 1.5 2 Sudoeste 3 Sudoeste 0 -- -- 91
2020-11-23 01:00:00 2.4 0 Calma 2 Norte 0 -- -- 92
2020-11-23 00:00:00 2.5 0 Calma 3 Norte 0 -- -- 91
2020-11-22 23:00:00 3.2 0 Calma 3 Noroeste 0 -- -- 90
2020-11-22 22:00:00 3.6 0 Calma 5 Noroeste 0 -- -- 89
2020-11-22 21:00:00 4.6 4 Noroeste 7 Noroeste 0 -- -- 86
2020-11-22 20:00:00 6.8 3 Noroeste 4 Noroeste 0 -- -- 79
2020-11-22 19:00:00 9.6 0 Calma 9 Sudeste 0 -- -- 71
2020-11-22 18:00:00 13.3 6 Sudeste 8 Sudeste 0 -- -- 55
2020-11-22 17:00:00 15.4 4 Este 6 Este 0 -- -- 45
2020-11-22 16:00:00 16.1 3 Sudeste 7 Sudoeste 0 -- -- 42
2020-11-22 15:00:00 15.2 3 Sudeste 9 Este 0 -- -- 48
2020-11-22 14:00:00 13.5 4 Este 8 Este 0 -- -- 52
2020-11-22 13:00:00 11.3 2 Sudeste 6 Este 0 -- -- 54
2020-11-22 12:00:00 8.6 2 Sudeste 5 Este 0 -- -- 63
2020-11-22 11:00:00 5.3 0 Calma 3 Sudeste 0 -- -- 76
2020-11-22 10:00:00 1.6 0 Calma 3 Nordeste 0 -- -- 89
2020-11-22 09:00:00 -0.8 0 Calma 0 Calma 0 -- -- 94
2020-11-22 08:00:00 -1.2 0 Calma 0 Calma 0 -- -- 94
2020-11-22 07:00:00 -1 0 Calma 0 Calma 0 -- -- 93
2020-11-22 06:00:00 -0.6 0 Calma -- -- 0 -- -- 93
2020-11-22 05:00:00 -0.2 0 Calma 2 Oeste 0 -- -- 91
2020-11-22 04:00:00 0.3 0 Calma 3 Noroeste 0 -- -- 91
2020-11-22 03:00:00 0.6 0 Calma 3 Oeste 0 -- -- 89
2020-11-22 02:00:00 1.1 0 Calma 3 Oeste 0 -- -- 91
2020-11-22 01:00:00 1.7 2 Oeste 4 Noroeste 0 -- -- 91
2020-11-22 00:00:00 1.8 0 Calma 5 Sudoeste 0 -- -- 87
2020-11-21 23:00:00 3.2 0 Calma 10 Noroeste 0 -- -- 81
2020-11-21 22:00:00 3.7 0 Calma 6 Noroeste 0 -- -- 83
2020-11-21 21:00:00 4.4 3 Norte 5 Noroeste 0 -- -- 82
2020-11-21 20:00:00 5.8 4 Noroeste 6 Noroeste 0 -- -- 76
2020-11-21 19:00:00 9.3 4 Noroeste 6 Sur 0 -- -- 64
2020-11-21 18:00:00 13.3 5 Sur 6 Sur 0 -- -- 44
2020-11-21 17:00:00 16.3 4 Sur 10 Sur 0 -- -- 36
2020-11-21 16:00:00 16.3 3 Sudeste 11 Sudeste 0 -- -- 35
2020-11-21 15:00:00 16 7 Este 18 Este 0 -- -- 33
2020-11-21 14:00:00 15.2 10 Este 16 Nordeste 0 -- -- 32
2020-11-21 13:00:00 13.8 4 Nordeste 9 Este 0 -- -- 44
2020-11-21 12:00:00 11.9 3 Sudoeste 6 Sudoeste 0 -- -- 58
2020-11-21 11:00:00 8.1 0 Calma 3 Sur 0 -- -- 70
2020-11-21 10:00:00 4.3 0 Calma 3 Sur 0 -- -- 87
2020-11-21 09:00:00 1.3 0 Calma 5 Noroeste 0 -- -- 90
2020-11-21 08:00:00 1.2 2 Noroeste 4 Noroeste 0 -- -- 88
2020-11-21 07:00:00 2.2 0 Calma 8 Noroeste 0 -- -- 85
2020-11-21 06:00:00 2.5 4 Noroeste 8 Sudoeste 0 -- -- 87
2020-11-21 05:00:00 2.8 3 Oeste 8 Noroeste 0 -- -- 88
2020-11-21 04:00:00 2.9 4 Noroeste 9 Noroeste 0 -- -- 89
2020-11-21 03:00:00 2.5 6 Noroeste 10 Oeste 0 -- -- 94
2020-11-21 02:00:00 2.4 4 Noroeste 6 Noroeste 0 -- -- 94
2020-11-21 01:00:00 2.8 5 Oeste 10 Nordeste 0 -- -- 92
2020-11-21 00:00:00 3.2 4 Noroeste 6 Oeste 0 -- -- 91
2020-11-20 23:00:00 4.2 0 Calma 5 Norte 0 -- -- 90
2020-11-20 22:00:00 4.3 0 Calma 7 Nordeste 0 -- -- 90
2020-11-20 21:00:00 5 4 Norte 5 Noroeste 0 -- -- 87
2020-11-20 20:00:00 5.8 3 Noroeste 6 Noroeste 0 -- -- 85
2020-11-20 19:00:00 7.7 0 Calma 6 Nordeste 0 -- -- 79
2020-11-20 18:00:00 10 4 Nordeste 9 Este 0 -- -- 70
2020-11-20 17:00:00 11.3 6 Este 13 Este 0 -- -- 61
2020-11-20 16:00:00 11.8 8 Este 15 Este 0 -- -- 62
2020-11-20 15:00:00 11.6 6 Este 17 Este 0 -- -- 65
2020-11-20 14:00:00 10.7 6 Nordeste 19 Este 0 -- -- 69
2020-11-20 13:00:00 9.5 5 Nordeste 13 Nordeste 0 -- -- 74
2020-11-20 12:00:00 8.4 9 Nordeste 16 Nordeste 0 -- -- 78
2020-11-20 11:00:00 7.6 5 Este 12 Este 0 -- -- 83
2020-11-20 10:00:00 7 7 Este 11 Este 0 -- -- 85
2020-11-20 09:00:00 6.6 5 Este 11 Sudeste 0 -- -- 87
2020-11-20 08:00:00 6.7 3 Sudeste 10 Este 0 -- -- 87
2020-11-20 07:00:00 6.9 10 Este 17 Este 0 -- -- 85
2020-11-20 06:00:00 7.3 5 Este 12 Este 0 -- -- 88
2020-11-20 05:00:00 7.7 5 Este 10 Este 0 -- -- 89
2020-11-20 04:00:00 7.9 4 Este 13 Este 0 -- -- 89
2020-11-20 03:00:00 8.1 3 Este 7 Este 0 -- -- 89
2020-11-20 02:00:00 8.3 0 Calma 12 Este 0 -- -- 89
2020-11-20 01:00:00 8.6 9 Este 13 Este 0 -- -- 88
2020-11-20 00:00:00 9.1 4 Nordeste 11 Este 0 -- -- 90
2020-11-19 23:00:00 9 4 Nordeste 10 Nordeste 0 -- -- 91
2020-11-19 22:00:00 8.8 5 Sudeste 12 Sudeste 0 -- -- 92
2020-11-19 21:00:00 8.4 3 Nordeste 9 Este 0 -- -- 92
2020-11-19 20:00:00 9.9 0 Calma 0 Calma 0 -- -- 89
2020-11-19 19:00:00 12 0 Calma 5 Sudeste 0 -- -- 82
2020-11-19 18:00:00 14.8 5 Sudeste 11 Sudeste 0 -- -- 75
2020-11-19 17:00:00 16.7 6 Este 9 Sudeste 0 -- -- 65
2020-11-19 16:00:00 17.4 3 Sudeste 10 Sur 0 -- -- 64
2020-11-19 15:00:00 17.1 3 Sur 10 Sur 0 -- -- 67
2020-11-19 14:00:00 15.8 5 Sudeste 9 Este 0 -- -- 73
2020-11-19 13:00:00 14.6 3 Este 10 Este 0 -- -- 76
2020-11-19 12:00:00 13.4 3 Este 8 Sur 0 -- -- 80
2020-11-19 11:00:00 11.2 4 Sur 6 Sur 0 -- -- 87
2020-11-19 10:00:00 7.1 3 Noroeste 6 Noroeste 0 -- -- 98
2020-11-19 09:00:00 4.2 3 Sudoeste 7 Oeste 0 -- -- 98
2020-11-19 08:00:00 4.1 2 Oeste 9 Sudoeste 0 -- -- 97
2020-11-19 07:00:00 4.5 4 Oeste 6 Noroeste 0 -- -- 98
2020-11-19 06:00:00 4.2 0 Calma 4 Noroeste 0 -- -- 97
2020-11-19 05:00:00 4.6 2 Norte 5 Noroeste 0 -- -- 97
2020-11-19 04:00:00 5 0 Calma 5 Oeste 0 -- -- 96
2020-11-19 03:00:00 5.8 0 Calma 4 Noroeste 0 -- -- 96
2020-11-19 02:00:00 6.5 0 Calma 11 Sudoeste 0 -- -- 95
2020-11-19 01:00:00 7.2 3 Sur 9 Sudoeste 0 -- -- 94
2020-11-19 00:00:00 8.6 3 Sudoeste 4 Sudoeste 0 -- -- 94
2020-11-18 23:00:00 9.1 4 Noroeste 6 Noroeste 0 -- -- 93
2020-11-18 22:00:00 9.3 4 Oeste 6 Noroeste 0 -- -- 94
2020-11-18 21:00:00 9.5 4 Oeste 8 Noroeste 0 -- -- 94
2020-11-18 20:00:00 9.5 2 Noroeste 6 Noroeste 0 -- -- 91
2020-11-18 19:00:00 11.6 0 Calma 9 Sur 0 -- -- 88
2020-11-18 18:00:00 13.4 8 Sudeste 12 Sudeste 0 -- -- 81
2020-11-18 17:00:00 15.5 6 Sudeste 10 Sudeste 0 -- -- 73
2020-11-18 16:00:00 15.8 6 Este 13 Sudeste 0 -- -- 72
2020-11-18 15:00:00 15.4 5 Sudeste 9 Este 0 -- -- 73
2020-11-18 14:00:00 13.8 3 Sudeste 8 Este 0 -- -- 78
2020-11-18 13:00:00 11.9 3 Este 8 Nordeste 0 -- -- 81
2020-11-18 12:00:00 9.5 3 Sudeste 7 Este 0 -- -- 91
2020-11-18 11:00:00 6.5 0 Calma 3 Este 0 -- -- 98
2020-11-18 10:00:00 5.3 0 Calma 2 Nordeste 0 -- -- 98
2020-11-18 09:00:00 4.8 0 Calma 3 Sur 0 -- -- 98
2020-11-18 08:00:00 4.7 0 Calma 0 Calma 0 -- -- 97
2020-11-18 07:00:00 5.6 0 Calma 4 Nordeste 0 -- -- 97
2020-11-18 06:00:00 6 0 Calma 2 Nordeste 0 -- -- 98
2020-11-18 05:00:00 5.7 0 Calma 4 Noroeste 0 -- -- 98
2020-11-18 04:00:00 5.2 0 Calma 2 Oeste 0 -- -- 97
2020-11-18 03:00:00 4.8 0 Calma 5 Este 0 -- -- 96
2020-11-18 02:00:00 5.4 2 Sur 3 Sur 0 -- -- 96
2020-11-18 01:00:00 4.4 0 Calma 3 Oeste 0 -- -- 96
2020-11-18 00:00:00 4.4 0 Calma 4 Noroeste 0 -- -- 94
2020-11-17 23:00:00 5 3 Noroeste -- -- 0 -- -- 94
2020-11-17 22:00:00 6 2 Noroeste 4 Noroeste 0 -- -- 93
2020-11-17 21:00:00 7.5 4 Noroeste 4 Noroeste 0 -- -- 91
2020-11-17 20:00:00 9.6 3 Este 4 Este 0 -- -- 87
2020-11-17 19:00:00 11 2 Sudeste 11 Sudeste 0 -- -- 83
2020-11-17 18:00:00 13.1 7 Sudeste 12 Sudeste 0 -- -- 76
2020-11-17 17:00:00 15.7 7 Sudeste 13 Sudeste 0 -- -- 65
2020-11-17 16:00:00 16.3 6 Sudeste 13 Sur 0 -- -- 62
2020-11-17 15:00:00 15.4 4 Sur 9 Sudeste 0 -- -- 64
2020-11-17 14:00:00 13.9 4 Este 8 Este 0 -- -- 73
2020-11-17 13:00:00 12.5 3 Este 9 Este 0 -- -- 77
2020-11-17 12:00:00 10.1 0 Calma 5 Sur 0 -- -- 84
2020-11-17 11:00:00 8 3 Sur 5 Sudoeste 0 -- -- 90
2020-11-17 10:00:00 4.7 0 Calma 3 Sur 0 -- -- 98
2020-11-17 09:00:00 1.5 0 Calma 0 Calma 0 -- -- 97
2020-11-17 08:00:00 1 0 Calma 4 Sudoeste 0 -- -- 96
2020-11-17 07:00:00 1.6 2 Sudoeste -- -- 0 -- -- 96
2020-11-17 06:00:00 2.4 0 Calma 3 Oeste 0 -- -- 96
2020-11-17 05:00:00 3 2 Oeste 4 Oeste 0 -- -- 96
2020-11-17 04:00:00 3.2 3 Oeste 5 Oeste 0 -- -- 96
2020-11-17 03:00:00 4 2 Oeste 3 Oeste 0 -- -- 95
2020-11-17 02:00:00 4.3 0 Calma 4 Noroeste 0 -- -- 95
2020-11-17 01:00:00 4.6 2 Noroeste 3 Noroeste 0 -- -- 95
2020-11-17 00:00:00 5.2 0 Calma 5 Noroeste 0 -- -- 94
2020-11-16 23:00:00 5.8 3 Noroeste 5 Noroeste 0 -- -- 94
2020-11-16 22:00:00 6.3 4 Noroeste 7 Noroeste 0 -- -- 93
2020-11-16 21:00:00 7.1 3 Oeste 5 Noroeste 0 -- -- 92
2020-11-16 20:00:00 8.4 2 Noroeste 4 Noroeste 0 -- -- 89
2020-11-16 19:00:00 10.9 0 Calma 3 Este 0 -- -- 80
2020-11-16 18:00:00 13 0 Calma 5 Sur 0 -- -- 70
2020-11-16 17:00:00 14.3 3 Sur 5 Norte 0 -- -- 65
2020-11-16 16:00:00 14.2 3 Noroeste 9 Sur 0 -- -- 66
2020-11-16 15:00:00 13.9 3 Sudeste 9 Sur 0 -- -- 68
2020-11-16 14:00:00 13.4 4 Sudoeste 9 Sur 0 -- -- 71
2020-11-16 13:00:00 12.5 4 Sur 9 Sudoeste 0 -- -- 75
2020-11-16 12:00:00 11.4 2 Oeste 10 Norte 0 -- -- 82
2020-11-16 11:00:00 9.9 5 Norte 10 Norte 0 -- -- 86
2020-11-16 10:00:00 7.5 2 Oeste 6 Noroeste 0 -- -- 98
2020-11-16 09:00:00 5 3 Noroeste 5 Noroeste 0 -- -- 98
2020-11-16 08:00:00 4.9 4 Noroeste 10 Noroeste 0 -- -- 97
2020-11-16 07:00:00 6.3 4 Noroeste 5 Noroeste 0 -- -- 97
2020-11-16 06:00:00 6 4 Norte 5 Norte 0 -- -- 97
2020-11-16 05:00:00 6.6 0 Calma 8 Norte 0 -- -- 97
2020-11-16 04:00:00 7.5 2 Norte 6 Nordeste 0 -- -- 96
2020-11-16 03:00:00 8.7 2 Noroeste 9 Norte 0 -- -- 96
2020-11-16 02:00:00 10.1 3 Norte 5 Norte 0 -- -- 95
2020-11-16 01:00:00 10.8 4 Norte 7 Norte 0 -- -- 94
2020-11-16 00:00:00 11 3 Nordeste 14 Sudoeste 0 -- -- 93
2020-11-15 23:00:00 12.4 9 Sudoeste 17 Sudoeste 0 -- -- 92
2020-11-15 22:00:00 12.8 4 Sudoeste 15 Sudoeste 0 -- -- 93
2020-11-15 21:00:00 13.4 11 Sudoeste 23 Sudoeste 0 -- -- 91
2020-11-15 20:00:00 13.6 13 Sudoeste 32 Sudoeste 0.2 -- -- 90
2020-11-15 19:00:00 13.9 5 Sudoeste 13 Sudoeste 0 -- -- 93
2020-11-15 18:00:00 14.2 5 Oeste 30 Oeste 0 -- -- 92
2020-11-15 17:00:00 14.6 14 Sudoeste 40 Oeste 0 -- -- 90
2020-11-15 16:00:00 14.9 18 Sudoeste 36 Sudoeste 0.4 -- -- 91
2020-11-15 15:00:00 14.3 17 Sudoeste 38 Sudoeste 1.6 -- -- 94
2020-11-15 14:00:00 15.4 29 Sudoeste 46 Sudoeste 0 -- -- 87
2020-11-15 13:00:00 15.1 23 Sudoeste 38 Sudoeste 0 -- -- 91
2020-11-15 12:00:00 14.5 15 Sudoeste 39 Sudoeste 0.2 -- -- 93
2020-11-15 11:00:00 14.1 21 Sudoeste 35 Oeste 0.4 -- -- 93
2020-11-15 10:00:00 13.7 20 Sudoeste 33 Sudoeste 0.6 -- -- 92
2020-11-15 09:00:00 13.6 19 Sudoeste 32 Sudoeste 0 -- -- 90
2020-11-15 08:00:00 13.5 20 Sudoeste 36 Sudoeste 0 -- -- 90
2020-11-15 07:00:00 13.2 18 Sudoeste 31 Sudoeste 0 -- -- 92
2020-11-15 06:00:00 12.5 13 Sudoeste 21 Sudoeste 0 -- -- 94
2020-11-15 05:00:00 11.8 9 Sudoeste 22 Sudoeste 0 -- -- 94
2020-11-15 04:00:00 12.1 12 Sudoeste 23 Sudoeste 0 -- -- 93
2020-11-15 03:00:00 12.3 16 Sudoeste 31 Sudoeste 0 -- -- 95
2020-11-15 02:00:00 12.2 14 Sudoeste 27 Sur 0 -- -- 95
2020-11-15 01:00:00 12.1 19 Sur 25 Sur 0 -- -- 95
2020-11-15 00:00:00 12 12 Sur 19 Sur 0 -- -- 95
2020-11-14 23:00:00 12 9 Sur 13 Sur 0 -- -- 96
2020-11-14 22:00:00 11.2 5 Sur 9 Este 0 -- -- 96
2020-11-14 21:00:00 11.1 0 Calma 8 Sur 0 -- -- 97
2020-11-14 20:00:00 11.5 6 Sur 9 Sudoeste 0.2 -- -- 97
2020-11-14 19:00:00 11.7 4 Sudoeste 8 Este 0.2 -- -- 97
2020-11-14 18:00:00 11.6 5 Este 9 Sudeste 0 -- -- 96
2020-11-14 17:00:00 11.6 3 Sur 4 Sudeste 0.4 -- -- 96
2020-11-14 16:00:00 11.6 0 Calma 8 Sur 0 -- -- 94
2020-11-14 15:00:00 11.5 5 Sur 12 Sur 0 -- -- 94
2020-11-14 14:00:00 12.2 7 Sur 16 Sur 0 -- -- 86
2020-11-14 13:00:00 10.8 6 Sudoeste 13 Sur 0 -- -- 94
2020-11-14 12:00:00 8.6 8 Sur 12 Sur 0 -- -- 98
2020-11-14 11:00:00 7.5 3 Sudeste 8 Este 0 -- -- 99
2020-11-14 10:00:00 6.9 3 Este 5 Este 0 -- -- 99
2020-11-14 09:00:00 6.6 0 Calma 5 Sudeste 0 -- -- 99
2020-11-14 08:00:00 6.4 4 Sudeste 8 Sur 0 -- -- 99
2020-11-14 07:00:00 6.6 5 Sudeste 9 Sudeste 0 -- -- 99
2020-11-14 06:00:00 6.5 2 Sur 5 Sur 0 -- -- 99
2020-11-14 05:00:00 6.3 2 Este 6 Este 0 -- -- 99
2020-11-14 04:00:00 6.2 4 Sudeste 8 Este 0 -- -- 99
2020-11-14 03:00:00 6.1 3 Este 6 Este 0 -- -- 99
2020-11-14 02:00:00 6.2 2 Sur 7 Sur 0 -- -- 98
2020-11-14 01:00:00 6.6 4 Sudeste 9 Sur 0 -- -- 98
2020-11-14 00:00:00 7 4 Sudoeste 6 Sur 0 -- -- 98
2020-11-13 23:00:00 7 0 Calma 5 Sudeste 0 -- -- 98
2020-11-13 22:00:00 7.2 3 Norte 7 Norte 0.2 -- -- 98
2020-11-13 21:00:00 7.5 0 Calma 8 Sudeste 0 -- -- 97
2020-11-13 20:00:00 7.7 5 Sudeste 11 Sudeste 0 -- -- 96
2020-11-13 19:00:00 8.3 6 Sudeste 11 Este 0 -- -- 95
2020-11-13 18:00:00 9.1 4 Sudeste 13 Este 0 -- -- 91
2020-11-13 17:00:00 10.7 10 Sudeste 17 Sudeste 0 -- -- 87
2020-11-13 16:00:00 10.7 7 Sudeste 14 Este 0 -- -- 88
2020-11-13 15:00:00 9.5 3 Sudeste 9 Este 0 -- -- 94
2020-11-13 14:00:00 8.5 3 Este 7 Sudeste 0 -- -- 98
2020-11-13 13:00:00 8.2 3 Sudeste 6 Sur 0 -- -- 99
2020-11-13 12:00:00 7.5 0 Calma 9 Sudeste 0 -- -- 99
2020-11-13 11:00:00 7 2 Sudoeste 6 Sudoeste 0 -- -- 99
2020-11-13 10:00:00 7 3 Sur 5 Sudeste 0 -- -- 99
2020-11-13 09:00:00 7 3 Sur 7 Sudoeste 0 -- -- 99
2020-11-13 08:00:00 6.9 4 Sudoeste 6 Sudoeste 0 -- -- 99
2020-11-13 07:00:00 7 4 Sudoeste 9 Sudoeste 0 -- -- 98
2020-11-13 06:00:00 7.2 3 Sudoeste 9 Sudoeste 0 -- -- 99
2020-11-13 05:00:00 7.3 7 Sudoeste 9 Sudoeste 0 -- -- 98
2020-11-13 04:00:00 7.6 4 Sudoeste 10 Oeste 0 -- -- 98
2020-11-13 03:00:00 7.8 5 Oeste 8 Sudoeste 0 -- -- 98
2020-11-13 02:00:00 7.8 4 Norte 10 Noroeste 0 -- -- 98
2020-11-13 01:00:00 7.8 4 Norte 6 Noroeste 0 -- -- 98
2020-11-13 00:00:00 7.9 2 Norte 5 Norte 0 -- -- 97
2020-11-12 23:00:00 8 4 Norte 7 Norte 0 -- -- 97
2020-11-12 22:00:00 8.4 3 Noroeste 6 Noroeste 0 -- -- 97
2020-11-12 21:00:00 8.5 2 Oeste 6 Oeste 0 -- -- 96
2020-11-12 20:00:00 8.6 2 Norte 4 Sudeste 0 -- -- 95
2020-11-12 19:00:00 8.7 0 Calma 9 Sudeste 0 -- -- 95
2020-11-12 18:00:00 8.8 6 Este 11 Este 0 -- -- 94
2020-11-12 17:00:00 8.9 5 Sur 8 Sur 0 -- -- 93
2020-11-12 16:00:00 9.1 5 Sudeste 13 Sur 0 -- -- 93
2020-11-12 15:00:00 9.1 0 Calma 10 Sudeste 0 -- -- 92
2020-11-12 14:00:00 9.1 5 Sudeste 9 Este 0 -- -- 93
2020-11-12 13:00:00 8.6 4 Sudoeste 8 Sur 0 -- -- 92
2020-11-12 12:00:00 8 2 Sudoeste 5 Sur 0 -- -- 95
2020-11-12 11:00:00 7.7 2 Sur 8 Oeste 0 -- -- 97
2020-11-12 10:00:00 7.1 5 Noroeste 9 Noroeste 0 -- -- 98
2020-11-12 09:00:00 6.2 6 Sudoeste 9 Sudoeste 0 -- -- 98
2020-11-12 08:00:00 5.8 4 Sudoeste 8 Sudoeste 0 -- -- 98
2020-11-12 07:00:00 6 5 Sudoeste 8 Sudoeste 0 -- -- 98
2020-11-12 06:00:00 7 0 Calma 5 Noroeste 0 -- -- 97
2020-11-12 05:00:00 6.9 3 Noroeste 6 Noroeste 0 -- -- 98
2020-11-12 04:00:00 6.6 2 Oeste 5 Noroeste 0 -- -- 97
2020-11-12 03:00:00 5.6 2 Noroeste 5 Noroeste 0 -- -- 97
2020-11-12 02:00:00 5.5 4 Noroeste 9 Noroeste 0 -- -- 96
2020-11-12 01:00:00 6.2 3 Noroeste 4 Noroeste 0 -- -- 95
2020-11-12 00:00:00 7.5 0 Calma 5 Este 0 -- -- 95
2020-11-11 23:00:00 7.9 3 Nordeste 10 Sur 0 -- -- 94
2020-11-11 22:00:00 8.4 8 Sur 11 Sur 0 -- -- 94
2020-11-11 21:00:00 8.5 5 Sur 7 Sudeste 0 -- -- 92
2020-11-11 20:00:00 9.4 4 Sudeste 7 Sur 0 -- -- 88
2020-11-11 19:00:00 10.2 4 Sur 13 Sur 0 -- -- 82
2020-11-11 18:00:00 10.8 10 Sur 18 Sur 0 -- -- 80
2020-11-11 17:00:00 11.7 10 Sudoeste 19 Sudoeste 0 -- -- 77
2020-11-11 16:00:00 12.1 14 Sudoeste 24 Sudoeste 0 -- -- 75
2020-11-11 15:00:00 11.9 10 Sudoeste 21 Oeste 0 -- -- 76
2020-11-11 14:00:00 11.6 14 Sudoeste 28 Sudoeste 0 -- -- 77
2020-11-11 13:00:00 9.9 11 Sur 17 Oeste 0 -- -- 83
2020-11-11 12:00:00 8.8 8 Sudoeste 15 Sudoeste 0 -- -- 90
2020-11-11 11:00:00 7.3 5 Sur 10 Sudoeste 0 -- -- 95
2020-11-11 10:00:00 6.9 5 Sudoeste 9 Sur 0 -- -- 95
2020-11-11 09:00:00 6.7 2 Sur 9 Sudeste 0 -- -- 94
2020-11-11 08:00:00 6.8 4 Sudeste 8 Sudeste 0 -- -- 93
2020-11-11 07:00:00 6.9 4 Sudeste 7 Sudeste 0 -- -- 94
2020-11-11 06:00:00 7 0 Calma 5 Sur 0 -- -- 93
2020-11-11 05:00:00 7.1 0 Calma 7 Este 0 -- -- 93
2020-11-11 04:00:00 7.2 5 Sudeste 8 Este 0 -- -- 93
2020-11-11 03:00:00 7.5 2 Sudoeste 8 Sudeste 0 -- -- 91
2020-11-11 02:00:00 7.7 4 Sur 10 Sudeste 0 -- -- 90
2020-11-11 01:00:00 7.8 3 Sudeste 9 Sudeste 0 -- -- 90
2020-11-11 00:00:00 8 5 Sudeste 8 Este 0 -- -- 90
2020-11-10 23:00:00 8.1 0 Calma 6 Norte 0 -- -- 90
2020-11-10 22:00:00 8 2 Noroeste 8 Noroeste 0 -- -- 91
2020-11-10 21:00:00 8.1 2 Sur 8 Nordeste 0 -- -- 91
2020-11-10 20:00:00 8.2 2 Este 9 Este 0 -- -- 90
2020-11-10 19:00:00 8.3 6 Sudeste 10 Este 0 -- -- 89
2020-11-10 18:00:00 8.7 5 Sudeste 10 Este 0 -- -- 88
2020-11-10 17:00:00 8.9 3 Nordeste 12 Este 0 -- -- 87
2020-11-10 16:00:00 9 6 Nordeste 10 Este 0 -- -- 88
2020-11-10 15:00:00 8.9 3 Este 14 Este 0 -- -- 88
2020-11-10 14:00:00 9 8 Nordeste 12 Nordeste 0 -- -- 89
2020-11-10 13:00:00 8.7 4 Nordeste 11 Este 0 -- -- 89
2020-11-10 12:00:00 8.6 3 Norte 11 Este 0 -- -- 89
2020-11-10 11:00:00 8 2 Este 5 Este 0 -- -- 89
2020-11-10 10:00:00 5 0 Calma 3 Norte 0 -- -- 97
2020-11-10 09:00:00 2.2 0 Calma 3 Noroeste 0 -- -- 98
2020-11-10 08:00:00 0.9 3 Noroeste 5 Noroeste 0 -- -- 97
2020-11-10 07:00:00 1.5 2 Sudoeste 2 Sudoeste 0 -- -- 97
2020-11-10 06:00:00 1.5 0 Calma 2 Sur 0 -- -- 97
2020-11-10 05:00:00 2.1 0 Calma 5 Noroeste 0 -- -- 97
2020-11-10 04:00:00 2.5 0 Calma 5 Sudoeste 0 -- -- 97
2020-11-10 03:00:00 3.2 0 Calma 4 Oeste 0 -- -- 97
2020-11-10 02:00:00 3.9 4 Sudoeste 5 Oeste 0 -- -- 97
2020-11-10 01:00:00 4.3 3 Sur 5 Sur 0 -- -- 96
2020-11-10 00:00:00 4.7 0 Calma 5 Nordeste 0 -- -- 95
2020-11-09 23:00:00 5.7 0 Calma 5 Noroeste 0 -- -- 96
2020-11-09 22:00:00 6.3 0 Calma 3 Nordeste 0 -- -- 94
2020-11-09 21:00:00 7.2 0 Calma 6 Nordeste 0 -- -- 93
2020-11-09 20:00:00 8.6 0 Calma 5 Sudoeste 0 -- -- 89
2020-11-09 19:00:00 9.9 0 Calma 7 Sudoeste 0 -- -- 87
2020-11-09 18:00:00 11.8 5 Sudoeste 18 Sur 0 -- -- 81
2020-11-09 17:00:00 12.6 9 Sudoeste 23 Sudoeste 0 -- -- 77
2020-11-09 16:00:00 13.2 9 Sudoeste 22 Sudoeste 0 -- -- 75
2020-11-09 15:00:00 13.5 17 Sudoeste 27 Sudoeste 0 -- -- 72
2020-11-09 14:00:00 13.2 17 Sudoeste 24 Sur 0 -- -- 76
2020-11-09 13:00:00 13.2 11 Sudoeste 19 Sudoeste 0 -- -- 80
2020-11-09 12:00:00 12 14 Sudoeste 18 Sudoeste 0 -- -- 83
2020-11-09 11:00:00 11.5 11 Sudoeste 18 Sur 0 -- -- 87
2020-11-09 10:00:00 9.3 5 Sur 7 Sur 0 -- -- 97
2020-11-09 09:00:00 7.9 3 Sur 9 Sur 0 -- -- 98
2020-11-09 08:00:00 7.2 8 Sudoeste 13 Sudoeste 0 -- -- 97
2020-11-09 07:00:00 6.4 4 Sudoeste 6 Sur 0 -- -- 96
2020-11-09 06:00:00 7.9 3 Oeste 10 Sudoeste 0.2 -- -- 96
2020-11-09 05:00:00 7.9 9 Sur 17 Sur 0 -- -- 95
2020-11-09 04:00:00 7.3 3 Norte 13 Sur 0 -- -- 95
2020-11-09 03:00:00 8.6 7 Sur 14 Sur 0 -- -- 95
2020-11-09 02:00:00 9.1 8 Sur 12 Sur 0 -- -- 96
2020-11-09 01:00:00 8.7 0 Calma 14 Sur 0 -- -- 96
2020-11-09 00:00:00 9 4 Sur 10 Sur 0 -- -- 97
2020-11-08 23:00:00 8.6 8 Sur 17 Sur 0 -- -- 95
2020-11-08 22:00:00 9.2 11 Sur 17 Sur 0 -- -- 94
2020-11-08 21:00:00 10.4 9 Sudoeste 14 Sudoeste 0 -- -- 96
2020-11-08 20:00:00 10.2 7 Sudeste 12 Sur 0 -- -- 95
2020-11-08 19:00:00 10.4 7 Sudoeste 27 Sur 0.2 -- -- 93
2020-11-08 18:00:00 11.1 14 Sur 25 Sudeste 0 -- -- 90
2020-11-08 17:00:00 11.2 6 Este 10 Este 0 -- -- 93
2020-11-08 16:00:00 10.5 4 Sudeste 14 Sur 0.4 -- -- 93
2020-11-08 15:00:00 10.9 11 Sur 21 Sur 0 -- -- 90
2020-11-08 14:00:00 11.2 11 Sur 21 Sur 0.4 -- -- 91
2020-11-08 13:00:00 10.9 11 Sur 24 Sur 1 -- -- 92
2020-11-08 12:00:00 11.2 19 Sur 34 Sur 0.8 -- -- 91
2020-11-08 11:00:00 10.8 7 Sur 12 Sudeste 0 -- -- 93
2020-11-08 10:00:00 9.5 8 Sudeste 21 Sudeste 0 -- -- 94
2020-11-08 09:00:00 9.1 10 Sudeste 18 Sudeste 1 -- -- 94
2020-11-08 08:00:00 10 11 Sudeste 22 Sudeste 0 -- -- 90
2020-11-08 07:00:00 10.2 12 Sur 25 Sur 0 -- -- 90
2020-11-08 06:00:00 10.1 15 Sur 27 Sur 0 -- -- 91
2020-11-08 05:00:00 9 6 Sudeste 13 Sudeste 0 -- -- 94
2020-11-08 04:00:00 9.1 6 Sudeste 13 Sudeste 0 -- -- 94
2020-11-08 03:00:00 9.2 4 Sudeste 16 Sudeste 0 -- -- 92
2020-11-08 02:00:00 9.5 12 Sudeste 17 Este 0 -- -- 91
2020-11-08 01:00:00 9.8 10 Este 15 Este 0 -- -- 90
2020-11-08 00:00:00 9.8 3 Sudeste 7 Sudeste 0 -- -- 91
2020-11-07 23:00:00 9.9 4 Sur 15 Sudoeste 0 -- -- 87
2020-11-07 22:00:00 10.9 12 Sudoeste 21 Sudoeste 0 -- -- 85
2020-11-07 21:00:00 10.2 10 Sudoeste 12 Sudoeste 0 -- -- 86
2020-11-07 20:00:00 10.3 3 Sur 15 Sur 0 -- -- 83
2020-11-07 19:00:00 10.5 7 Sudoeste 15 Sudoeste 0 -- -- 82
2020-11-07 18:00:00 12.2 10 Sudoeste 25 Sudoeste 0 -- -- 77
2020-11-07 17:00:00 13.5 15 Sudoeste 29 Sudoeste 0 -- -- 71
2020-11-07 16:00:00 13.6 19 Sudoeste 31 Sudoeste 0 -- -- 69
2020-11-07 15:00:00 13.9 19 Sudoeste 35 Oeste 0 -- -- 68
2020-11-07 14:00:00 15.1 25 Sudoeste 37 Sudoeste 0 -- -- 62
2020-11-07 13:00:00 14.1 18 Sudoeste 32 Sudoeste 0 -- -- 72
2020-11-07 12:00:00 12.8 16 Sudoeste 27 Sudoeste 0 -- -- 80
2020-11-07 11:00:00 11.6 10 Sudoeste 18 Sudoeste 0 -- -- 90
2020-11-07 10:00:00 10.7 10 Sudoeste 15 Sudoeste 0 -- -- 94
2020-11-07 09:00:00 9.9 5 Sur 8 Sur 0.2 -- -- 96
2020-11-07 08:00:00 9.8 4 Sudoeste 9 Sudoeste 0.4 -- -- 96
2020-11-07 07:00:00 9.7 0 Calma 5 Sudeste 0 -- -- 96
2020-11-07 06:00:00 10.1 2 Sudeste 6 Sur 0 -- -- 96
2020-11-07 05:00:00 10.2 3 Sur 9 Sudeste 0 -- -- 96
2020-11-07 04:00:00 10.2 6 Sudeste 9 Sudeste 0.2 -- -- 96
2020-11-07 03:00:00 10.2 2 Este 6 Este 0.2 -- -- 95
2020-11-07 02:00:00 10.2 4 Sudeste 14 Sudeste 1 -- -- 94
2020-11-07 01:00:00 10.3 9 Sur 24 Sudeste 1 -- -- 93
2020-11-07 00:00:00 10.4 5 Sur 13 Sur 0.4 -- -- 92
2020-11-06 23:00:00 10.9 7 Sudeste 20 Sur 0.2 -- -- 90
2020-11-06 22:00:00 11.7 19 Sur 40 Sur 0.6 -- -- 84
2020-11-06 21:00:00 13.4 14 Sur 35 Sudeste 0 -- -- 78
2020-11-06 20:00:00 14.4 18 Sudeste 35 Sudeste 0 -- -- 80
2020-11-06 19:00:00 14.5 19 Sudeste 30 Sudeste 0 -- -- 83
2020-11-06 18:00:00 13.8 9 Sudeste 15 Sudeste 0 -- -- 86
2020-11-06 17:00:00 14 12 Sudeste 21 Este 0 -- -- 84
2020-11-06 16:00:00 13.8 12 Este 26 Este 0 -- -- 83
2020-11-06 15:00:00 13 18 Este 33 Este 0.2 -- -- 86
2020-11-06 14:00:00 12.7 13 Este 26 Nordeste 0 -- -- 88
2020-11-06 13:00:00 12.1 9 Este 22 Nordeste 0.2 -- -- 88
2020-11-06 12:00:00 11.7 6 Este 12 Este 0 -- -- 89
2020-11-06 11:00:00 10.3 5 Norte 14 Nordeste 0 -- -- 94
2020-11-06 10:00:00 9.9 7 Nordeste 10 Norte 0.2 -- -- 94
2020-11-06 09:00:00 8.9 3 Norte 7 Este 0 -- -- 96
2020-11-06 08:00:00 8.5 2 Norte 6 Este 0 -- -- 96
2020-11-06 07:00:00 8.7 4 Este 12 Este 0 -- -- 96
2020-11-06 06:00:00 9 3 Sudeste 12 Este 0 -- -- 96
2020-11-06 05:00:00 8.7 9 Sudeste 23 Sur 0.8 -- -- 95
2020-11-06 04:00:00 9 7 Sudeste 15 Sudeste 0 -- -- 93
2020-11-06 03:00:00 9.1 9 Este 15 Este 0 -- -- 92
2020-11-06 02:00:00 9.2 6 Este 13 Este 0 -- -- 93
2020-11-06 01:00:00 9.6 6 Este 17 Este 0 -- -- 94
2020-11-06 00:00:00 9.8 10 Este 23 Este 0 -- -- 94
2020-11-05 23:00:00 10.2 18 Este 33 Este 0.4 -- -- 93
2020-11-05 22:00:00 10.2 18 Este 29 Este 0.8 -- -- 94
2020-11-05 21:00:00 10.4 13 Este 27 Este 1.2 -- -- 92
2020-11-05 20:00:00 10.7 17 Este 32 Este 1.2 -- -- 90
2020-11-05 19:00:00 10.8 15 Este 30 Este 0.2 -- -- 88
2020-11-05 18:00:00 11.2 15 Este 29 Este 0 -- -- 84
2020-11-05 17:00:00 11.8 18 Este 30 Este 0 -- -- 77
2020-11-05 16:00:00 11.5 15 Este 27 Este 0.2 -- -- 77
2020-11-05 15:00:00 11.6 17 Este 29 Este 0 -- -- 78
2020-11-05 14:00:00 10.9 12 Este 26 Este 0 -- -- 84
2020-11-05 13:00:00 9.9 15 Este 30 Este 0.6 -- -- 87
2020-11-05 12:00:00 8.8 14 Este 31 Este 0.8 -- -- 89
2020-11-05 11:00:00 8.4 13 Este 31 Este 0.6 -- -- 86
2020-11-05 10:00:00 8.2 21 Este 39 Este 0 -- -- 82
2020-11-05 09:00:00 7.4 17 Este 28 Este 0 -- -- 84
2020-11-05 08:00:00 6.9 14 Nordeste 26 Este 0 -- -- 85
2020-11-05 07:00:00 6.6 12 Nordeste 25 Nordeste 0 -- -- 84
2020-11-05 06:00:00 6.7 15 Nordeste 34 Este 0 -- -- 82
2020-11-05 05:00:00 6.9 12 Nordeste 32 Este 0 -- -- 80
2020-11-05 04:00:00 6.5 17 Nordeste 37 Nordeste 0 -- -- 80
2020-11-05 03:00:00 6.4 21 Nordeste 35 Nordeste 0 -- -- 78
2020-11-05 02:00:00 6.2 10 Nordeste 31 Nordeste 0 -- -- 77
2020-11-05 01:00:00 6.2 16 Nordeste 33 Este 0 -- -- 76
2020-11-05 00:00:00 5.7 8 Nordeste 23 Nordeste 0 -- -- 78
2020-11-04 23:00:00 5.4 15 Nordeste 34 Nordeste 0 -- -- 80
2020-11-04 22:00:00 5.3 18 Nordeste 45 Nordeste 0.2 -- -- 82
2020-11-04 21:00:00 5.1 21 Nordeste 54 Nordeste 0.4 -- -- 84
2020-11-04 20:00:00 6.9 26 Este 48 Este 0 -- -- 70
2020-11-04 19:00:00 7.6 24 Nordeste 49 Este 0 -- -- 61
2020-11-04 18:00:00 8.1 32 Este 51 Este 0 -- -- 59
2020-11-04 17:00:00 8.9 32 Este 49 Este 0 -- -- 57
2020-11-04 16:00:00 9.4 33 Este 51 Este 0 -- -- 54
2020-11-04 15:00:00 10.4 29 Nordeste 47 Este 0 -- -- 53
2020-11-04 14:00:00 9.2 27 Nordeste 50 Este 0 -- -- 58
2020-11-04 13:00:00 8.6 29 Nordeste 45 Este 0 -- -- 60
2020-11-04 12:00:00 7.8 18 Nordeste 30 Norte 0 -- -- 64
2020-11-04 11:00:00 7 9 Nordeste 31 Nordeste 0 -- -- 71
2020-11-04 10:00:00 5.2 12 Norte 19 Norte 0 -- -- 75
2020-11-04 09:00:00 4.4 9 Norte 14 Nordeste 0 -- -- 79
2020-11-04 08:00:00 4.2 0 Calma 7 Nordeste 0 -- -- 81
2020-11-04 07:00:00 4.3 0 Calma 7 Norte 0 -- -- 81
2020-11-04 06:00:00 4.3 4 Noroeste 6 Norte 0 -- -- 79
2020-11-04 05:00:00 4.3 5 Norte 9 Norte 0 -- -- 77
2020-11-04 04:00:00 4.5 4 Nordeste 8 Norte 0 -- -- 79
2020-11-04 03:00:00 3.9 5 Oeste 7 Noroeste 0 -- -- 83
2020-11-04 02:00:00 2.8 3 Nordeste 5 Norte 0 -- -- 85
2020-11-04 01:00:00 3.4 3 Norte 6 Nordeste 0 -- -- 79
2020-11-04 00:00:00 4.3 3 Oeste 8 Este 0 -- -- 75
2020-11-03 23:00:00 4.5 3 Sudeste 23 Norte 0 -- -- 76
2020-11-03 22:00:00 4.9 9 Nordeste 17 Nordeste 0 -- -- 76
2020-11-03 21:00:00 6.1 9 Norte 24 Norte 0 -- -- 71
2020-11-03 20:00:00 7.6 15 Norte 27 Nordeste 0 -- -- 66
2020-11-03 19:00:00 8.9 17 Nordeste 29 Norte 0 -- -- 60
2020-11-03 18:00:00 10.9 15 Nordeste 25 Nordeste 0 -- -- 55
2020-11-03 17:00:00 12.7 15 Norte 26 Norte 0 -- -- 49
2020-11-03 16:00:00 13.5 17 Nordeste 34 Nordeste 0 -- -- 46
2020-11-03 15:00:00 14 17 Nordeste 31 Nordeste 0 -- -- 48
2020-11-03 14:00:00 14.1 17 Nordeste 34 Nordeste 0 -- -- 51
2020-11-03 13:00:00 13.2 20 Nordeste 31 Norte 0 -- -- 55
2020-11-03 12:00:00 12.1 22 Norte 37 Norte 0 -- -- 58
2020-11-03 11:00:00 11.1 22 Norte 35 Norte 0 -- -- 60
2020-11-03 10:00:00 9.7 16 Norte 26 Norte 0 -- -- 64
2020-11-03 09:00:00 6.3 13 Norte 21 Norte 0 -- -- 73
2020-11-03 08:00:00 4.7 4 Nordeste 19 Norte 0 -- -- 72
2020-11-03 07:00:00 5.3 9 Norte 21 Norte 0 -- -- 70
2020-11-03 06:00:00 6.7 12 Norte 28 Norte 0 -- -- 65
2020-11-03 05:00:00 7.4 14 Norte 37 Norte 0 -- -- 63
2020-11-03 04:00:00 8.5 24 Norte 37 Norte 0 -- -- 66
2020-11-03 03:00:00 9.2 17 Norte 32 Norte 0 -- -- 70
2020-11-03 02:00:00 10.3 12 Norte 24 Noroeste 0 -- -- 74
2020-11-03 01:00:00 11.3 5 Norte 17 Nordeste 0 -- -- 78
2020-11-03 00:00:00 12.2 7 Nordeste 12 Norte 0 -- -- 86
2020-11-02 23:00:00 13.4 4 Norte 8 Norte 0 -- -- 88
2020-11-02 22:00:00 14.5 5 Nordeste 9 Noroeste 0 -- -- 87
2020-11-02 21:00:00 14.6 4 Noroeste 12 Sudoeste 0 -- -- 90
2020-11-02 20:00:00 15.2 9 Sudoeste 21 Sudoeste 0 -- -- 88
2020-11-02 19:00:00 15.9 4 Sudoeste 13 Oeste 0 -- -- 83
2020-11-02 18:00:00 16.5 9 Oeste 19 Oeste 0 -- -- 79
2020-11-02 17:00:00 17.6 12 Oeste 28 Sudoeste 0 -- -- 72
2020-11-02 16:00:00 18.6 18 Sudoeste 31 Sudoeste 0 -- -- 67
2020-11-02 15:00:00 18.9 18 Sudoeste 33 Sudoeste 0 -- -- 65
2020-11-02 14:00:00 19 24 Sudoeste 36 Sudoeste 0 -- -- 66
2020-11-02 13:00:00 18.8 17 Sudoeste 28 Sudoeste 0 -- -- 68
2020-11-02 12:00:00 17 16 Sudoeste 24 Oeste 0 -- -- 74
2020-11-02 11:00:00 16.9 15 Sudoeste 27 Sudoeste 0 -- -- 78
2020-11-02 10:00:00 14.3 5 Sudoeste 12 Oeste 0 -- -- 89
2020-11-02 09:00:00 13.5 4 Oeste 12 Sudoeste 0 -- -- 92
2020-11-02 08:00:00 12.9 11 Sudoeste 16 Sudoeste 0 -- -- 92
2020-11-02 07:00:00 13 8 Sudoeste 13 Sudoeste 0 -- -- 92
2020-11-02 06:00:00 13.1 6 Sudoeste 11 Sudoeste 0 -- -- 91
2020-11-02 05:00:00 13.6 8 Sudoeste 13 Sudoeste 0 -- -- 90
2020-11-02 04:00:00 13.4 6 Sudoeste 10 Sudoeste 0 -- -- 91
2020-11-02 03:00:00 13.8 5 Sudoeste 13 Sudoeste 0 -- -- 91
2020-11-02 02:00:00 13.5 4 Oeste 17 Sudoeste 0 -- -- 91
2020-11-02 01:00:00 12.6 8 Sudoeste 12 Sudoeste 0 -- -- 93
2020-11-02 00:00:00 13.7 8 Sudoeste 14 Sudoeste 0 -- -- 91
2020-11-01 23:00:00 14.2 9 Sudoeste 14 Sudoeste 0 -- -- 92
2020-11-01 22:00:00 14 6 Sudoeste 14 Sudoeste 0 -- -- 91
2020-11-01 21:00:00 14.4 6 Sudoeste 14 Sudoeste 0 -- -- 90
2020-11-01 20:00:00 14.1 5 Sudoeste 12 Sudoeste 0 -- -- 90
2020-11-01 19:00:00 14.7 8 Sudoeste 16 Sudoeste 0 -- -- 87
2020-11-01 18:00:00 15.6 10 Sudoeste 20 Sudoeste 0 -- -- 84
2020-11-01 17:00:00 16.2 13 Sudoeste 23 Sudoeste 0 -- -- 82
2020-11-01 16:00:00 15.9 13 Sudoeste 22 Sudoeste 0 -- -- 82
2020-11-01 15:00:00 15.9 16 Sudoeste 25 Sudoeste 0 -- -- 82
2020-11-01 14:00:00 15.8 13 Sudoeste 23 Sudoeste 0 -- -- 82
2020-11-01 13:00:00 15.2 14 Sudoeste 21 Sudoeste 0 -- -- 84
2020-11-01 12:00:00 13.8 0 Calma 7 Este 0 -- -- 92
2020-11-01 11:00:00 12.8 3 Este 8 Sudeste 0 -- -- 95
2020-11-01 10:00:00 11.4 5 Este 7 Este 0 -- -- 96
2020-11-01 09:00:00 10.2 2 Este 5 Sudeste 0 -- -- 97
2020-11-01 08:00:00 9.5 0 Calma 8 Sudeste 0 -- -- 96
2020-11-01 07:00:00 9.2 3 Sudeste 8 Sur 0 -- -- 95
2020-11-01 06:00:00 9.6 3 Norte 6 Este 0 -- -- 95
2020-11-01 05:00:00 10 2 Noroeste 8 Sudoeste 0 -- -- 94
2020-11-01 04:00:00 10.9 4 Sudoeste 13 Sudoeste 0 -- -- 92
2020-11-01 03:00:00 11 12 Sudoeste 15 Sudoeste 0 -- -- 96
2020-11-01 02:00:00 9 0 Calma 5 Este 0 -- -- 94
2020-11-01 01:00:00 9.7 0 Calma 8 Oeste 0 -- -- 91
2020-11-01 00:00:00 10.6 5 Oeste 14 Sudoeste 0 -- -- 93
2020-10-31 23:00:00 10.3 13 Sudoeste 16 Sudoeste 0 -- -- 92
2020-10-31 22:00:00 11.1 13 Sudoeste 17 Sudoeste 0 -- -- 91
2020-10-31 21:00:00 11.5 8 Sudoeste 14 Sudoeste 0 -- -- 88
2020-10-31 20:00:00 12.5 11 Sudoeste 18 Sudoeste 0 -- -- 85
2020-10-31 19:00:00 14 13 Sudoeste 21 Sudoeste 0 -- -- 78
2020-10-31 18:00:00 16 19 Sudoeste 30 Sudoeste 0 -- -- 70
2020-10-31 17:00:00 16.8 21 Sudoeste 36 Sudoeste 0 -- -- 66
2020-10-31 16:00:00 17.8 22 Sudoeste 35 Sudoeste 0 -- -- 65
2020-10-31 15:00:00 17.4 24 Sudoeste 36 Sudoeste 0 -- -- 69
2020-10-31 14:00:00 11.8 4 Este 10 Este 0 -- -- 94
2020-10-31 13:00:00 10.4 8 Este 13 Sudeste 0 -- -- 97
2020-10-31 12:00:00 9 4 Este 10 Sudeste 0 -- -- 98
2020-10-31 11:00:00 7.8 3 Este 10 Este 0 -- -- 98
2020-10-31 10:00:00 7.1 3 Sur 9 Sudeste 0 -- -- 98
2020-10-31 09:00:00 5.5 0 Calma 5 Noroeste 0 -- -- 98
2020-10-31 08:00:00 5.3 0 Calma 4 Sudeste 0 -- -- 97
2020-10-31 07:00:00 4.5 0 Calma 4 Noroeste 0 -- -- 96
2020-10-31 06:00:00 4.4 0 Calma 6 Norte 0 -- -- 96
2020-10-31 05:00:00 4.9 4 Sur 7 Sur 0 -- -- 97
2020-10-31 04:00:00 4 2 Nordeste 3 Sudeste 0 -- -- 95
2020-10-31 03:00:00 4.7 0 Calma 4 Noroeste 0 -- -- 95
2020-10-31 02:00:00 5.1 0 Calma 5 Sudoeste 0 -- -- 94
2020-10-31 01:00:00 5.5 2 Sudeste 5 Noroeste 0 -- -- 94
2020-10-31 00:00:00 6.1 0 Calma 4 Noroeste 0 -- -- 93
2020-10-30 23:00:00 6.9 0 Calma 5 Noroeste 0 -- -- 92
2020-10-30 22:00:00 7.7 0 Calma 5 Noroeste 0 -- -- 90
2020-10-30 21:00:00 9.5 0 Calma 6 Noroeste 0 -- -- 89
2020-10-30 20:00:00 11.6 3 Noroeste 6 Sudeste 0 -- -- 85
2020-10-30 19:00:00 14.7 5 Sur 14 Sur 0 -- -- 73
2020-10-30 18:00:00 17.3 8 Sur 13 Sur 0 -- -- 66
2020-10-30 17:00:00 18.6 9 Sudoeste 17 Sudeste 0 -- -- 59
2020-10-30 16:00:00 18.3 8 Sudeste 16 Sudeste 0 -- -- 63
2020-10-30 15:00:00 17.5 6 Sur 19 Sur 0 -- -- 64
2020-10-30 14:00:00 15.8 5 Sudeste 13 Este 0 -- -- 69
2020-10-30 13:00:00 14.3 5 Sudeste 10 Sudeste 0 -- -- 73
2020-10-30 12:00:00 11.5 4 Sur 6 Sudoeste 0 -- -- 81
2020-10-30 11:00:00 8.7 0 Calma 4 Noroeste 0 -- -- 93
2020-10-30 10:00:00 7.1 2 Noroeste 5 Sudoeste 0 -- -- 96
2020-10-30 09:00:00 5 3 Sudoeste 5 Sudoeste 0 -- -- 97
2020-10-30 08:00:00 4.5 0 Calma 6 Noroeste 0 -- -- 97
2020-10-30 07:00:00 4.2 2 Oeste 5 Sudeste 0 -- -- 96
2020-10-30 06:00:00 4.7 4 Sudeste 6 Sur 0 -- -- 95
2020-10-30 05:00:00 5.1 3 Sudoeste 6 Sudoeste 0 -- -- 96
2020-10-30 04:00:00 4.6 0 Calma 3 Oeste 0 -- -- 96
2020-10-30 03:00:00 4.1 0 Calma 0 Calma 0 -- -- 96
2020-10-30 02:00:00 3.2 0 Calma 4 Noroeste 0 -- -- 96
2020-10-30 01:00:00 2.8 3 Noroeste 5 Noroeste 0 -- -- 95
2020-10-30 00:00:00 3.6 0 Calma 4 Noroeste 0 -- -- 94
2020-10-29 23:00:00 4.3 0 Calma 5 Noroeste 0 -- -- 93
2020-10-29 22:00:00 5.3 0 Calma 6 Noroeste 0 -- -- 93
2020-10-29 21:00:00 6.6 0 Calma 3 Noroeste 0 -- -- 90
2020-10-29 20:00:00 8.4 2 Noroeste 8 Noroeste 0 -- -- 87
2020-10-29 19:00:00 10.3 3 Sudeste 11 Sudeste 0 -- -- 79
2020-10-29 18:00:00 13.1 8 Sudeste 14 Sudeste 0 -- -- 71
2020-10-29 17:00:00 14.8 6 Sur 13 Sur 0 -- -- 65
2020-10-29 16:00:00 14.3 3 Sur 14 Sur 0 -- -- 65
2020-10-29 15:00:00 13.3 5 Sudeste 15 Sudoeste 0 -- -- 68
2020-10-29 14:00:00 11.4 3 Sur 9 Oeste 0 -- -- 74
2020-10-29 13:00:00 10.4 3 Noroeste 6 Noroeste 0 -- -- 80
2020-10-29 12:00:00 8.5 0 Calma 4 Sur 0 -- -- 86
2020-10-29 11:00:00 6.5 2 Sur 5 Sudeste 0 -- -- 95
2020-10-29 10:00:00 4.1 0 Calma 3 Sudoeste 0 -- -- 97
2020-10-29 09:00:00 1.6 0 Calma 2 Sudoeste 0 -- -- 97
2020-10-29 08:00:00 0.5 0 Calma 2 Norte 0 -- -- 95
2020-10-29 07:00:00 1 0 Calma 4 Sur 0 -- -- 95
2020-10-29 06:00:00 1.4 0 Calma 4 Noroeste 0 -- -- 95
2020-10-29 05:00:00 1.8 0 Calma 4 Noroeste 0 -- -- 95
2020-10-29 04:00:00 2.2 0 Calma 5 Noroeste 0 -- -- 95
2020-10-29 03:00:00 2.9 4 Noroeste 5 Noroeste 0 -- -- 94
2020-10-29 02:00:00 3.4 2 Sur 4 Oeste 0 -- -- 94
2020-10-29 01:00:00 4.2 4 Sudoeste 6 Noroeste 0 -- -- 93
2020-10-29 00:00:00 4.9 3 Noroeste 6 Noroeste 0 -- -- 92
2020-10-28 23:00:00 6.1 0 Calma 7 Noroeste 0 -- -- 92
2020-10-28 22:00:00 6.6 4 Noroeste 6 Noroeste 0 -- -- 89
2020-10-28 21:00:00 8.3 0 Calma 4 Noroeste 0 -- -- 85
2020-10-28 20:00:00 9.6 2 Sudeste 5 Este 0 -- -- 82
2020-10-28 19:00:00 12 4 Sudoeste 18 Oeste 0 -- -- 72
2020-10-28 18:00:00 13.8 10 Sudoeste 24 Sudoeste 0 -- -- 65
2020-10-28 17:00:00 14.9 16 Sudoeste 30 Sudoeste 0 -- -- 61
2020-10-28 16:00:00 16.2 16 Sudoeste 29 Sudoeste 0 -- -- 59
2020-10-28 15:00:00 16.5 15 Sudoeste 30 Sudoeste 0 -- -- 58
2020-10-28 14:00:00 16 17 Sudoeste 32 Sudoeste 0 -- -- 61
2020-10-28 13:00:00 16.3 15 Sudoeste 27 Sudoeste 0 -- -- 58
2020-10-28 12:00:00 14.8 11 Oeste 19 Oeste 0 -- -- 60
2020-10-28 11:00:00 12.5 7 Oeste 14 Sudoeste 0 -- -- 79
2020-10-28 10:00:00 10.7 0 Calma 7 Oeste 0 -- -- 90
2020-10-28 09:00:00 9.4 2 Norte 12 Oeste 0 -- -- 94
2020-10-28 08:00:00 9.4 2 Oeste 9 Sudoeste 0 -- -- 94
2020-10-28 07:00:00 9.9 6 Sudoeste 14 Sudoeste 0.2 -- -- 92
2020-10-28 06:00:00 10.4 4 Sur 9 Sur 0 -- -- 94
2020-10-28 05:00:00 10.8 2 Oeste 6 Sur 0 -- -- 95
2020-10-28 04:00:00 10.6 3 Sur 6 Sur 0 -- -- 95
2020-10-28 03:00:00 10.8 0 Calma 6 Sudeste 0 -- -- 94
2020-10-28 02:00:00 10.8 4 Sudeste 9 Sudeste 0 -- -- 94
2020-10-28 01:00:00 10.7 4 Sudeste 10 Sur 0 -- -- 94
2020-10-28 00:00:00 10.6 5 Sudoeste 17 Sudoeste 0 -- -- 93